Flight Track Log - Related Links

Times and Time Zones

All times are in EDT time to prevent confusion due to time zone crossing. See the EJM303 flight status page for this flight to view local times or setup timezone preferences in your user account.

Time Position Orientation Groundspeed Altitude Reporting Facility
EDT Latitude Longitude Course Direction KTS MPH feet Rate Location/Type
Tue 01:07:49 PM 42.4667 -71.2500 180° South 170 196 1,100  Level KA90
Tue 01:08:37 PM 42.4333 -71.2500 180° South 196 226 2,700 2,663 Climbing KA90
Tue 01:10:38 PM 42.3917 -71.4142 251° West 258 297 8,600 3,017 Climbing Boston Center
Tue 01:11:38 PM 42.3656 -71.5269 253° West 275 316 11,800 2,600 Climbing Boston Center
Tue 01:12:38 PM 42.3244 -71.6144 238° Southwest 291 335 13,800 2,300 Climbing Boston Center
Tue 01:13:38 PM 42.2708 -71.7106 233° Southwest 316 364 16,400 2,250 Climbing Boston Center
Tue 01:14:38 PM 42.2194 -71.8122 236° Southwest 334 384 18,300 1,950 Climbing Boston Center
Tue 01:15:38 PM 42.1617 -71.9219 235° Southwest 340 391 20,300 1,750 Climbing Boston Center
Tue 01:16:38 PM 42.0997 -72.0400 235° Southwest 352 405 21,800 1,800 Climbing Boston Center
Tue 01:17:38 PM 42.0436 -72.1494 235° Southwest 367 422 23,900 1,950 Climbing Boston Center
Tue 01:18:38 PM 41.9833 -72.2642 235° Southwest 381 438 25,700 1,750 Climbing Boston Center
Tue 01:19:38 PM 41.9211 -72.3842 235° Southwest 381 438 27,400 1,900 Climbing Boston Center
Tue 01:20:38 PM 41.8586 -72.5014 234° Southwest 386 444 29,500 1,950 Climbing Boston Center
Tue 01:21:38 PM 41.8000 -72.6156 235° Southwest 386 444 31,300 1,750 Climbing Boston Center
Tue 01:22:38 PM 41.7414 -72.7267 235° Southwest 380 437 33,000 1,450 Climbing Boston Center
Tue 01:23:38 PM 41.6808 -72.8375 234° Southwest 380 437 34,200 1,150 Climbing Boston Center
Tue 01:24:38 PM 41.6219 -72.9511 235° Southwest 380 437 35,300 1,050 Climbing Boston Center
Tue 01:25:38 PM 41.5631 -73.0589 234° Southwest 375 432 36,300 850 Climbing Boston Center
Tue 01:26:38 PM 41.5081 -73.1636 235° Southwest 368 423 37,000 600 Climbing Boston Center
Tue 01:27:38 PM 41.4511 -73.2708 235° Southwest 363 418 37,500 450 Climbing Boston Center
Tue 01:28:38 PM 41.3919 -73.3808 234° Southwest 363 418 37,900 175 Climbing Boston Center
Tue 01:30:29 PM 41.2781 -73.5900 234° Southwest 384 442 38,000 36 Climbing New York Center
Tue 01:31:27 PM 41.2083 -73.7083 232° Southwest 397 457 38,000  Level New York Center
Tue 01:32:28 PM 41.1325 -73.8289 230° Southwest 414 476 38,000  Level New York Center
Tue 01:33:28 PM 41.0586 -73.9467 230° Southwest 419 482 38,000  Level New York Center
Tue 01:34:28 PM 40.9825 -74.0639 229° Southwest 419 482 38,000  Level New York Center
Tue 01:35:28 PM 40.8956 -74.1889 227° Southwest 424 488 38,000  Level New York Center
Tue 01:36:29 PM 40.8211 -74.3083 231° Southwest 424 488 38,000  Level New York Center
Tue 01:37:28 PM 40.7425 -74.4247 228° Southwest 429 494 38,000  Level New York Center
Tue 01:38:28 PM 40.6658 -74.5439 230° Southwest 435 501 38,000  Level New York Center
Tue 01:39:30 PM 40.5869 -74.6625 229° Southwest 435 501 38,000  Level New York Center
Tue 01:40:29 PM 40.5122 -74.7811 230° Southwest 435 501 38,000  Level New York Center
Tue 01:41:30 PM 40.4353 -74.8992 229° Southwest 435 501 38,000  Level New York Center
Tue 01:42:29 PM 40.3561 -75.0172 229° Southwest 435 501 38,000  Level New York Center
Tue 01:43:29 PM 40.2789 -75.1347 229° Southwest 435 501 38,000  Level New York Center
Tue 01:44:30 PM 40.2033 -75.2522 230° Southwest 435 501 38,000  Level New York Center
Tue 01:45:28 PM 40.1239 -75.3694 228° Southwest 440 506 38,000  Level New York Center
Tue 01:46:28 PM 40.0464 -75.4864 229° Southwest 440 506 38,000  Level New York Center
Tue 01:47:28 PM 39.9664 -75.6056 229° Southwest 440 506 38,000  Level New York Center
Tue 01:48:29 PM 39.8889 -75.7192 228° Southwest 440 506 38,000  Level New York Center
Tue 01:49:29 PM 39.8169 -75.8411 232° Southwest 440 506 38,000  Level New York Center
Tue 01:50:28 PM 39.7411 -75.9544 229° Southwest 435 501 38,000  Level New York Center
Tue 01:51:28 PM 39.6567 -76.0722 227° Southwest 435 501 38,000  Level New York Center
Tue 01:52:50 PM 39.5619 -76.2347 233° Southwest 422 486 38,000  Level Washington Center
Tue 01:53:51 PM 39.4883 -76.3497 230° Southwest 422 486 38,000  Level Washington Center
Tue 01:54:49 PM 39.4125 -76.4672 230° Southwest 427 491 38,000  Level Washington Center
Tue 01:55:49 PM 39.3428 -76.5711 229° Southwest 432 497 38,000  Level Washington Center
Tue 01:56:50 PM 39.2689 -76.6881 231° Southwest 432 497 38,000  Level Washington Center
Tue 01:57:50 PM 39.1950 -76.8022 230° Southwest 427 491 38,000  Level Washington Center
Tue 01:58:51 PM 39.1208 -76.9186 231° Southwest 427 491 38,000  Level Washington Center
Tue 01:59:49 PM 39.0464 -77.0322 230° Southwest 427 491 38,000  Level Washington Center
Tue 02:00:50 PM 38.9578 -77.1319 221° Southwest 427 491 38,000  Level Washington Center
Tue 02:01:50 PM 38.8647 -77.2311 220° Southwest 433 498 38,000  Level Washington Center
Tue 02:02:51 PM 38.7672 -77.3408 221° Southwest 433 498 38,000  Level Washington Center
Tue 02:03:49 PM 38.6761 -77.4372 220° Southwest 433 498 38,000  Level Washington Center
Tue 02:04:50 PM 38.5869 -77.5386 222° Southwest 433 498 38,000  Level Washington Center
Tue 02:05:50 PM 38.4958 -77.6342 219° Southwest 438 504 38,000  Level Washington Center
Tue 02:06:50 PM 38.4064 -77.7325 221° Southwest 438 504 38,000  Level Washington Center
Tue 02:07:51 PM 38.3150 -77.8306 220° Southwest 433 498 38,000  Level Washington Center
Tue 02:08:49 PM 38.2256 -77.9283 221° Southwest 433 498 38,000  Level Washington Center
Tue 02:09:50 PM 38.1361 -78.0231 220° Southwest 438 504 38,000  Level Washington Center
Tue 02:10:51 PM 38.0464 -78.1206 221° Southwest 438 504 38,000  Level Washington Center
Tue 02:11:49 PM 37.9678 -78.1994 218° Southwest 433 498 38,000  Level Washington Center
Tue 02:12:49 PM 37.8717 -78.2908 217° Southwest 427 491 38,000  Level Washington Center
Tue 02:13:50 PM 37.7781 -78.3794 217° Southwest 427 491 38,000  Level Washington Center
Tue 02:14:51 PM 37.6714 -78.4778 216° Southwest 433 498 38,000  Level Washington Center
Tue 02:15:49 PM 37.5775 -78.5686 217° Southwest 433 498 38,000  Level Washington Center
Tue 02:16:49 PM 37.4814 -78.6564 216° Southwest 433 498 38,000  Level Washington Center
Tue 02:17:50 PM 37.3872 -78.7494 218° Southwest 433 498 38,000  Level Washington Center
Tue 02:18:50 PM 37.2889 -78.8367 215° Southwest 433 498 38,000  Level Washington Center
Tue 02:19:51 PM 37.2011 -78.9189 217° Southwest 438 504 38,000  Level Washington Center
Tue 02:20:49 PM 37.1047 -79.0086 217° Southwest 444 511 38,000  Level Washington Center
Tue 02:21:50 PM 37.0061 -79.0978 216° Southwest 444 511 38,000  Level Washington Center
Tue 02:22:50 PM 36.9097 -79.1844 216° Southwest 444 511 38,000  Level Washington Center
Tue 02:23:51 PM 36.8131 -79.2758 217° Southwest 444 511 38,000  Level Washington Center
Tue 02:24:49 PM 36.7078 -79.3744 217° Southwest 444 511 38,000  Level Washington Center
Tue 02:25:50 PM 36.6089 -79.4628 216° Southwest 444 511 38,000  Level Washington Center
Tue 02:26:51 PM 36.5119 -79.5511 216° Southwest 444 511 38,000  Level Washington Center
Tue 02:29:07 PM 36.2858 -79.7528 216° Southwest 450 518 38,000  Level Atlanta Center
Tue 02:30:07 PM 36.1908 -79.8400 217° Southwest 445 512 38,000  Level Atlanta Center
Tue 02:31:07 PM 36.0956 -79.9247 216° Southwest 439 505 38,000  Level Atlanta Center
Tue 02:32:07 PM 35.9939 -79.9992 211° Southwest 445 512 38,000  Level Atlanta Center
Tue 02:33:07 PM 35.8956 -80.0503 203° Southwest 421 484 38,000  Level Atlanta Center
Tue 02:34:07 PM 35.7844 -80.1042 201° Southwest 426 490 38,000  Level Atlanta Center
Tue 02:35:07 PM 35.6633 -80.1664 203° Southwest 426 490 38,000  Level Atlanta Center
Tue 02:36:07 PM 35.5525 -80.2225 202° Southwest 432 497 38,000  Level Atlanta Center
Tue 02:37:07 PM 35.4417 -80.2789 203° Southwest 427 491 38,000  Level Atlanta Center
Tue 02:38:07 PM 35.3328 -80.3347 203° Southwest 433 498 38,000  Level Atlanta Center
Tue 02:39:07 PM 35.2236 -80.3878 202° Southwest 428 493 38,000  Level Atlanta Center
Tue 02:40:40 PM 35.0544 -80.4708 202° Southwest 432 497 38,000  Level Jacksonville Center
Tue 02:41:40 PM 34.9450 -80.5247 202° Southwest 432 497 38,000  Level Jacksonville Center
Tue 02:42:39 PM 34.8375 -80.5783 202° Southwest 427 491 38,000  Level Jacksonville Center
Tue 02:43:40 PM 34.7361 -80.6289 202° Southwest 422 486 38,000  Level Jacksonville Center
Tue 02:44:40 PM 34.6244 -80.6825 202° Southwest 427 491 38,000  Level Jacksonville Center
Tue 02:45:40 PM 34.5189 -80.7356 202° Southwest 441 507 38,000  Level Jacksonville Center
Tue 02:46:40 PM 34.4072 -80.7936 203° Southwest 441 507 38,000  Level Jacksonville Center
Tue 02:47:40 PM 34.2956 -80.8492 202° Southwest 431 496 38,000  Level Jacksonville Center
Tue 02:48:40 PM 34.1794 -80.8994 200° South 425 489 38,000  Level Jacksonville Center
Tue 02:49:40 PM 34.0719 -80.9522 202° Southwest 430 495 38,000  Level Jacksonville Center
Tue 02:50:40 PM 33.9600 -81.0047 201° Southwest 430 495 38,000  Level Jacksonville Center
Tue 02:51:40 PM 33.8606 -81.0494 200° South 430 495 38,000  Level Jacksonville Center
Tue 02:52:40 PM 33.7425 -81.1117 204° Southwest 430 495 38,000  Level Jacksonville Center
Tue 02:53:39 PM 33.6367 -81.1664 203° Southwest 430 495 38,000  Level Jacksonville Center
Tue 02:54:40 PM 33.5269 -81.2208 202° Southwest 430 495 38,000  Level Jacksonville Center
Tue 02:55:40 PM 33.4192 -81.2725 202° Southwest 430 495 38,000  Level Jacksonville Center
Tue 02:56:40 PM 33.3111 -81.3242 202° Southwest 430 495 38,000  Level Jacksonville Center
Tue 02:57:40 PM 33.2033 -81.3783 203° Southwest 425 489 38,000  Level Jacksonville Center
Tue 02:58:40 PM 33.0953 -81.4297 202° Southwest 425 489 38,000  Level Jacksonville Center
Tue 02:59:40 PM 32.9875 -81.4833 203° Southwest 425 489 38,000  Level Jacksonville Center
Tue 03:00:40 PM 32.8817 -81.5344 202° Southwest 419 482 38,000  Level Jacksonville Center
Tue 03:01:40 PM 32.7736 -81.5856 202° Southwest 419 482 38,000  Level Jacksonville Center
Tue 03:02:40 PM 32.6800 -81.6339 203° Southwest 419 482 38,000  Level Jacksonville Center
Tue 03:03:40 PM 32.5594 -81.6897 201° Southwest 414 476 38,000  Level Jacksonville Center
Tue 03:04:40 PM 32.4514 -81.7406 202° Southwest 420 483 38,000  Level Jacksonville Center
Tue 03:05:40 PM 32.3497 -81.7883 202° Southwest 431 496 38,000  Level Jacksonville Center
Tue 03:06:40 PM 32.2292 -81.8464 202° Southwest 436 502 38,000  Level Jacksonville Center
Tue 03:07:40 PM 32.1292 -81.8942 202° Southwest 436 502 38,000  Level Jacksonville Center
Tue 03:08:40 PM 32.0003 -81.9444 198° South 436 502 38,000  Level Jacksonville Center
Tue 03:09:40 PM 31.8772 -81.9653 188° South 441 507 38,000  Level Jacksonville Center
Tue 03:10:40 PM 31.7625 -81.9861 189° South 459 528 38,000  Level Jacksonville Center
Tue 03:11:40 PM 31.6269 -82.0094 188° South 459 528 38,000  Level Jacksonville Center
Tue 03:12:40 PM 31.5164 -82.0322 190° South 454 522 38,000  Level Jacksonville Center
Tue 03:13:40 PM 31.3911 -82.0531 188° South 454 522 38,000  Level Jacksonville Center
Tue 03:14:40 PM 31.2683 -82.0758 189° South 454 522 38,000  Level Jacksonville Center
Tue 03:15:40 PM 31.1431 -82.0989 189° South 454 522 38,000  Level Jacksonville Center
Tue 03:16:40 PM 31.0178 -82.1192 188° South 454 522 38,000  Level Jacksonville Center
Tue 03:17:40 PM 30.8947 -82.1397 188° South 454 522 38,000  Level Jacksonville Center
Tue 03:18:40 PM 30.7697 -82.1600 188° South 454 522 38,000  Level Jacksonville Center
Tue 03:19:40 PM 30.6467 -82.1828 189° South 454 522 38,000  Level Jacksonville Center
Tue 03:20:40 PM 30.5111 -82.2006 186° South 454 522 38,000  Level Jacksonville Center
Tue 03:21:40 PM 30.3858 -82.2231 189° South 454 522 38,000  Level Jacksonville Center
Tue 03:22:40 PM 30.2628 -82.2433 188° South 446 513 38,000  Level Jacksonville Center
Tue 03:23:40 PM 30.1397 -82.2658 189° South 446 513 38,000  Level Jacksonville Center
Tue 03:24:40 PM 30.0167 -82.2906 190° South 446 513 38,000 -150 Level Jacksonville Center
Tue 03:25:40 PM 29.8956 -82.3128 189° South 451 519 37,700 -550 Descending Jacksonville Center
Tue 03:26:40 PM 29.7747 -82.3325 188° South 446 513 36,900 -350 Descending Jacksonville Center
Tue 03:27:40 PM 29.6558 -82.3500 187° South 441 507 37,000 50 Climbing Jacksonville Center
Tue 03:28:40 PM 29.5347 -82.3697 188° South 441 507 37,000  Level Jacksonville Center
Tue 03:29:40 PM 29.4158 -82.3894 188° South 446 513 37,000  Level Jacksonville Center
Tue 03:30:40 PM 29.3094 -82.4450 204° Southwest 418 481 37,000  Level Jacksonville Center
Tue 03:31:40 PM 29.2053 -82.5072 208° Southwest 428 493 37,000  Level Jacksonville Center
Tue 03:32:40 PM 29.1011 -82.5669 207° Southwest 428 493 37,000  Level Jacksonville Center
Tue 03:33:40 PM 29.0094 -82.6219 208° Southwest 423 487 37,000  Level Jacksonville Center
Tue 03:34:40 PM 28.9031 -82.6814 206° Southwest 423 487 37,000  Level Jacksonville Center
Tue 03:35:40 PM 28.7989 -82.7408 207° Southwest 429 494 37,000  Level Jacksonville Center
Tue 03:36:40 PM 28.6925 -82.8028 207° Southwest 429 494 37,000  Level Jacksonville Center
Tue 03:37:40 PM 28.5986 -82.8783 215° Southwest 424 488 37,000  Level Jacksonville Center
Tue 03:38:40 PM 28.5089 -82.9564 217° Southwest 419 482 37,000  Level Jacksonville Center
Tue 03:39:40 PM 28.4086 -83.0153 207° Southwest 413 475 37,000  Level Jacksonville Center
Tue 03:40:40 PM 28.2814 -82.9964 173° South 418 481 37,000  Level Jacksonville Center
Tue 03:41:27 PM 28.1861 -82.9444 154° Southeast 427 491 37,000  Level Miami Center
Tue 03:42:27 PM 28.1061 -82.8181 126° Southeast 442 509 37,000  Level Miami Center
Tue 03:43:27 PM 28.0311 -82.6636 119° Southeast 464 534 37,000  Level Miami Center
Tue 03:44:27 PM 27.9611 -82.5356 122° Southeast 481 554 37,000 -50 Level Miami Center
Tue 03:45:27 PM 27.8447 -82.4664 152° Southeast 481 554 36,900  Descending Miami Center
Tue 03:46:27 PM 27.7358 -82.4281 163° South 455 524 37,000 -450 Climbing Miami Center
Tue 03:47:27 PM 27.6144 -82.3847 162° South 463 533 36,000 -1,350 Descending Miami Center
Tue 03:48:27 PM 27.4764 -82.3336 162° South 468 539 34,300 -1,550 Descending Miami Center
Tue 03:49:27 PM 27.3531 -82.2881 162° South 473 544 32,900 -1,450 Descending Miami Center
Tue 03:50:27 PM 27.2458 -82.2503 163° South 464 534 31,400 -1,450 Descending Miami Center
Tue 03:51:27 PM 27.1264 -82.2050 161° South 459 528 30,000 -1,550 Descending Miami Center
Tue 03:52:27 PM 26.9967 -82.1594 163° South 452 520 28,300 -1,600 Descending Miami Center
Tue 03:53:27 PM 26.8750 -82.1167 163° South 447 514 26,800 -1,500 Descending Miami Center
Tue 03:54:27 PM 26.7600 -82.0650 158° South 452 520 25,300 -1,450 Descending Miami Center
Tue 03:55:27 PM 26.6678 -81.9633 135° Southeast 458 527 23,900 -650 Descending Miami Center
Tue 03:56:27 PM 26.5836 -81.8575 132° Southeast 451 519 24,000 50 Climbing Miami Center
Tue 03:57:27 PM 26.5036 -81.7592 132° Southeast 438 504 24,000 -300 Level Miami Center
Tue 03:58:27 PM 26.4317 -81.6633 130° Southeast 438 504 23,400 -800 Descending Miami Center
Tue 03:59:27 PM 26.3472 -81.5603 132° Southeast 438 504 22,400 -1,050 Descending Miami Center
Tue 04:00:27 PM 26.2669 -81.4575 131° Southeast 443 510 21,300 -1,050 Descending Miami Center
Tue 04:01:27 PM 26.1947 -81.3644 131° Southeast 425 489 20,300 -1,600 Descending Miami Center
Tue 04:02:27 PM 26.1583 -81.2589 111° Southeast 386 444 18,100 -2,700 Descending Miami Center
Tue 04:03:27 PM 26.1406 -81.1519 100° East 356 410 14,900 -3,050 Descending Miami Center
Tue 04:04:27 PM 26.1264 -81.0611 100° East 325 374 12,000 -2,950 Descending Miami Center
Tue 04:05:27 PM 26.1061 -80.9725 104° East 302 348 9,000 -2,900 Descending Miami Center
Tue 04:06:27 PM 26.0917 -80.8864 101° East 287 330 6,200 -1,550 Descending Miami Center
Tue 04:07:27 PM 26.1064 -80.8039 79° East 275 316 5,900 -500 Descending Miami Center
Tue 04:08:27 PM 26.1211 -80.7233 78° East 261 300 5,200 -701 Descending Miami Center
Tue 04:08:44 PM 26.1219 -80.6956 88° East 278 320 5,000 -300 Descending Miami Center
Tue 04:09:27 PM 26.1361 -80.6289 77° East 267 307 4,900 -291 Descending Miami Center
Tue 04:10:27 PM 26.1467 -80.5483 82° East 267 307 4,500 -650 Descending Miami Center
Tue 04:11:27 PM 26.1653 -80.4656 76° East 272 313 3,600 -969 Descending Miami Center
Tue 04:12:37 PM 26.1756 -80.3872 82° East 201 231 2,400 -641 Descending Miami Center
Tue 04:13:38 PM 26.1811 -80.3317 84° East 158 182 2,200 -344 Descending Miami Center
Tue 04:14:39 PM 26.1822 -80.2831 89° East 159 183 1,700 -590 Descending Miami Center
Tue 04:15:40 PM 26.1872 -80.2464 81° East 118 136 1,000 -672 Descending Miami Center
Tue 04:16:35 PM 26.1944 -80.2117 77° East 122 140 400 -655 Descending Miami Center
Tue 04:18:00 PM 26.1833 -80.1667 336° Northwest  Level FlightAware Approximate
Tue 04:25:00 PM 26.1973 -80.1707 336° Northwest  Level Estimated

Login

Don't have an account? Register now (free) for customized features, flight alerts, and more!